Main page
METAR-TAF:

METAR-TAF

Airports :

Québec City Jean Lesage International Airport

Quebec City, Quebec, Canada

latitude: 46-48N, longitude: 071-23W, elevation: 70 m

Current weather observation

The report was made 31 minutes ago, at 22:00 UTC
Wind 14 kt from the West/Southwest
Temperature -4°C
Humidity 42%
Pressure 1021 hPa
Visibility: 48.3 km
Few clouds at a height of 4000 ft

METAR: CYQB 182200Z 24014KT 30SM FEW040 M04/M15 A3016 RMK SC2 SLP221

Time: 18:31 (22:31 UTC)

Forecast

The report was made 4 hours and 53 minutes ago, at 17:38 UTC
Forecast valid from 18 at 18 UTC to 19 at 18 UTC
Wind 10 kt from the West/Southwest with gusts up to 20 kt
Visibility: 10 km
Few clouds at a height of 4000 ft
Becoming
from 18 at 22 UTC to 18 at 24 UTC
Wind 5 kt from the West
Becoming
from 19 at 14 UTC to 19 at 16 UTC
Wind 12 kt from the West/Southwest

TAF: CYQB 181738Z 1818/1918 25010G20KT P6SM FEW040 BECMG 1822/1824 26005KT BECMG 1914/1916 24012KT RMK NXT FCST BY 190000Z

Weather observations and forecasts of more than 4000 airports (METAR and TAF reports).

The available stations are represented by yellow and red dots on the map.

Hover mouse over dot to see the name of the station.

Then click to see weather observations and forecasts.

To change the map : click on the green buttons with a black cross to zoom in, on the green button with a dash to zoom out, or on the green arrows for adjacent maps.


METAR-TAF: